Longleaf, Louisiana
Current Conditions -  °F | °C
As of 12:35 AM on Friday 19 Dec 2014 (Local Time) from KACP Reporting Station
Haze Haze  
Wind Chill: 52°   Ceiling: 300
Heat Index: 52°   Visibility: 4mi
Dew Point: 51°   Wind: 5mph
Humidity: 95%   Direction: 20°NNE
Pressure: 30.09"   Gusts: NA
Location:  31.01°N, 92.55°W
Report Text: KACP 190635Z AUTO 02004KT 4SM BR OVC003 11/11 A3009 RMK AO2 LTG DSNT SW T01120105
Loading
Personal Weather Stations






























Interactive Weather Map New forecast layout! Learn more

10-Day Weather Forecast

Advertisements
Track Severe Weather on mobile